sensor_id;sensor_type;location;lat;lon;timestamp;pressure;altitude;pressure_sealevel;temperature;humidity
55733;BME280;41637;52.364;9.910;2023-01-31T00:01:18;101131.03;;;3.33;90.45
55733;BME280;41637;52.364;9.910;2023-01-31T00:03:53;101135.95;;;3.33;90.70
55733;BME280;41637;52.364;9.910;2023-01-31T00:06:43;101129.04;;;3.32;91.37
55733;BME280;41637;52.364;9.910;2023-01-31T00:09:10;101146.45;;;3.35;91.54
55733;BME280;41637;52.364;9.910;2023-01-31T00:11:37;101151.29;;;3.40;91.73
55733;BME280;41637;52.364;9.910;2023-01-31T00:14:05;101144.34;;;3.40;91.46
55733;BME280;41637;52.364;9.910;2023-01-31T00:16:32;101147.11;;;3.40;91.81
55733;BME280;41637;52.364;9.910;2023-01-31T00:19:01;101152.73;;;3.40;91.85
55733;BME280;41637;52.364;9.910;2023-01-31T00:21:28;101147.59;;;3.38;92.30
55733;BME280;41637;52.364;9.910;2023-01-31T00:23:57;101143.50;;;3.35;92.53
55733;BME280;41637;52.364;9.910;2023-01-31T00:26:28;101146.71;;;3.34;92.45
55733;BME280;41637;52.364;9.910;2023-01-31T00:28:59;101157.27;;;3.33;92.63
55733;BME280;41637;52.364;9.910;2023-01-31T00:31:28;101156.55;;;3.31;92.61
55733;BME280;41637;52.364;9.910;2023-01-31T00:33:56;101155.75;;;3.30;92.50
55733;BME280;41637;52.364;9.910;2023-01-31T00:36:29;101167.91;;;3.29;92.56
55733;BME280;41637;52.364;9.910;2023-01-31T00:38:59;101165.23;;;3.30;92.45
55733;BME280;41637;52.364;9.910;2023-01-31T00:41:27;101158.27;;;3.34;92.36
55733;BME280;41637;52.364;9.910;2023-01-31T00:43:55;101166.08;;;3.35;92.25
55733;BME280;41637;52.364;9.910;2023-01-31T00:46:23;101174.15;;;3.41;91.70
55733;BME280;41637;52.364;9.910;2023-01-31T00:48:50;101174.73;;;3.44;91.19
55733;BME280;41637;52.364;9.910;2023-01-31T00:51:18;101166.43;;;3.48;90.87
55733;BME280;41637;52.364;9.910;2023-01-31T00:53:45;101171.96;;;3.49;90.60
55733;BME280;41637;52.364;9.910;2023-01-31T00:56:17;101174.13;;;3.53;90.16
55733;BME280;41637;52.364;9.910;2023-01-31T00:58:45;101181.61;;;3.58;89.80
55733;BME280;41637;52.364;9.910;2023-01-31T01:01:16;101185.17;;;3.59;89.59
55733;BME280;41637;52.364;9.910;2023-01-31T01:03:43;101185.90;;;3.63;89.70
55733;BME280;41637;52.364;9.910;2023-01-31T01:06:12;101194.39;;;3.62;90.23
55733;BME280;41637;52.364;9.910;2023-01-31T01:08:40;101191.96;;;3.59;90.48
55733;BME280;41637;52.364;9.910;2023-01-31T01:11:19;101182.73;;;3.57;90.61
55733;BME280;41637;52.364;9.910;2023-01-31T01:13:47;101193.16;;;3.51;91.33
55733;BME280;41637;52.364;9.910;2023-01-31T01:16:17;101200.75;;;3.54;91.82
55733;BME280;41637;52.364;9.910;2023-01-31T01:18:45;101199.59;;;3.58;91.98
55733;BME280;41637;52.364;9.910;2023-01-31T01:21:19;101211.66;;;3.58;92.78
55733;BME280;41637;52.364;9.910;2023-01-31T01:23:47;101212.00;;;3.60;93.04
55733;BME280;41637;52.364;9.910;2023-01-31T01:26:16;101232.77;;;3.59;93.38
55733;BME280;41637;52.364;9.910;2023-01-31T01:28:44;101236.30;;;3.58;93.79
55733;BME280;41637;52.364;9.910;2023-01-31T01:31:12;101227.00;;;3.59;93.99
55733;BME280;41637;52.364;9.910;2023-01-31T01:33:39;101229.17;;;3.60;93.74
55733;BME280;41637;52.364;9.910;2023-01-31T01:36:08;101228.92;;;3.56;94.02
55733;BME280;41637;52.364;9.910;2023-01-31T01:38:37;101226.68;;;3.54;93.94
55733;BME280;41637;52.364;9.910;2023-01-31T01:41:05;101226.05;;;3.51;93.82
55733;BME280;41637;52.364;9.910;2023-01-31T01:43:59;101229.34;;;3.49;93.71
55733;BME280;41637;52.364;9.910;2023-01-31T01:46:27;101228.06;;;3.47;93.63
55733;BME280;41637;52.364;9.910;2023-01-31T01:49:12;101231.09;;;3.42;93.71
55733;BME280;41637;52.364;9.910;2023-01-31T01:51:41;101229.44;;;3.40;93.84
55733;BME280;41637;52.364;9.910;2023-01-31T01:54:15;101237.71;;;3.37;94.05
55733;BME280;41637;52.364;9.910;2023-01-31T01:56:45;101233.73;;;3.37;93.86
55733;BME280;41637;52.364;9.910;2023-01-31T01:59:17;101237.52;;;3.35;94.27
55733;BME280;41637;52.364;9.910;2023-01-31T02:01:46;101248.91;;;3.37;94.23
55733;BME280;41637;52.364;9.910;2023-01-31T02:04:20;101247.41;;;3.36;94.07
55733;BME280;41637;52.364;9.910;2023-01-31T02:06:49;101250.30;;;3.33;93.99
55733;BME280;41637;52.364;9.910;2023-01-31T02:09:34;101254.03;;;3.30;94.39
55733;BME280;41637;52.364;9.910;2023-01-31T02:12:04;101246.27;;;3.28;94.36
55733;BME280;41637;52.364;9.910;2023-01-31T02:14:31;101246.40;;;3.26;94.55
55733;BME280;41637;52.364;9.910;2023-01-31T02:16:58;101257.30;;;3.28;94.24
55733;BME280;41637;52.364;9.910;2023-01-31T02:19:35;101246.26;;;3.28;94.58
55733;BME280;41637;52.364;9.910;2023-01-31T02:33:06;101238.75;;;3.42;94.61
55733;BME280;41637;52.364;9.910;2023-01-31T02:36:03;101244.64;;;3.45;94.21
55733;BME280;41637;52.364;9.910;2023-01-31T02:38:40;101256.61;;;3.46;94.43
55733;BME280;41637;52.364;9.910;2023-01-31T02:41:19;101253.22;;;3.47;94.51
55733;BME280;41637;52.364;9.910;2023-01-31T02:46:59;101264.17;;;3.50;94.51
55733;BME280;41637;52.364;9.910;2023-01-31T02:49:48;101259.77;;;3.51;94.84
55733;BME280;41637;52.364;9.910;2023-01-31T02:52:40;101265.79;;;3.52;95.31
55733;BME280;41637;52.364;9.910;2023-01-31T02:58:03;101268.25;;;3.50;95.96
55733;BME280;41637;52.364;9.910;2023-01-31T03:00:33;101271.46;;;3.49;95.71
55733;BME280;41637;52.364;9.910;2023-01-31T03:03:04;101277.13;;;3.50;95.80
55733;BME280;41637;52.364;9.910;2023-01-31T03:05:31;101272.45;;;3.52;96.22
55733;BME280;41637;52.364;9.910;2023-01-31T03:08:00;101275.10;;;3.52;96.33
55733;BME280;41637;52.364;9.910;2023-01-31T03:13:27;101276.13;;;3.47;97.65
55733;BME280;41637;52.364;9.910;2023-01-31T03:16:08;101273.45;;;3.43;98.51
55733;BME280;41637;52.364;9.910;2023-01-31T03:19:20;101268.33;;;3.37;98.71
55733;BME280;41637;52.364;9.910;2023-01-31T03:21:53;101264.67;;;3.32;99.07
55733;BME280;41637;52.364;9.910;2023-01-31T03:24:24;101253.24;;;3.31;99.30
55733;BME280;41637;52.364;9.910;2023-01-31T03:26:54;101268.95;;;3.29;99.12
55733;BME280;41637;52.364;9.910;2023-01-31T03:29:23;101256.50;;;3.31;99.28
55733;BME280;41637;52.364;9.910;2023-01-31T03:32:01;101256.45;;;3.30;99.52
55733;BME280;41637;52.364;9.910;2023-01-31T03:34:28;101253.27;;;3.30;98.31
55733;BME280;41637;52.364;9.910;2023-01-31T03:37:23;101255.58;;;3.30;97.97
55733;BME280;41637;52.364;9.910;2023-01-31T03:40:11;101255.94;;;3.32;97.58
55733;BME280;41637;52.364;9.910;2023-01-31T03:45:44;101246.84;;;3.30;97.39
55733;BME280;41637;52.364;9.910;2023-01-31T03:48:15;101244.13;;;3.28;96.72
55733;BME280;41637;52.364;9.910;2023-01-31T03:50:50;101249.16;;;3.29;96.58
55733;BME280;41637;52.364;9.910;2023-01-31T03:55:59;101243.86;;;3.25;96.31
55733;BME280;41637;52.364;9.910;2023-01-31T03:58:34;101238.09;;;3.25;96.34
55733;BME280;41637;52.364;9.910;2023-01-31T04:01:14;101237.05;;;3.25;95.96
55733;BME280;41637;52.364;9.910;2023-01-31T04:03:45;101231.17;;;3.22;95.65
55733;BME280;41637;52.364;9.910;2023-01-31T04:06:13;101230.63;;;3.17;95.57
55733;BME280;41637;52.364;9.910;2023-01-31T04:08:43;101231.13;;;3.15;95.33
55733;BME280;41637;52.364;9.910;2023-01-31T04:11:12;101229.13;;;3.12;95.22
55733;BME280;41637;52.364;9.910;2023-01-31T04:13:40;101233.38;;;3.08;95.39
55733;BME280;41637;52.364;9.910;2023-01-31T04:16:11;101222.27;;;3.07;95.30
55733;BME280;41637;52.364;9.910;2023-01-31T04:18:38;101223.23;;;3.04;95.26
55733;BME280;41637;52.364;9.910;2023-01-31T04:21:05;101226.23;;;3.03;95.15
55733;BME280;41637;52.364;9.910;2023-01-31T04:23:32;101225.70;;;3.01;95.52
55733;BME280;41637;52.364;9.910;2023-01-31T04:25:59;101229.73;;;3.01;95.12
55733;BME280;41637;52.364;9.910;2023-01-31T04:28:35;101238.90;;;3.02;95.25
55733;BME280;41637;52.364;9.910;2023-01-31T04:31:21;101240.98;;;3.02;94.90
55733;BME280;41637;52.364;9.910;2023-01-31T04:33:48;101234.13;;;3.05;94.52
55733;BME280;41637;52.364;9.910;2023-01-31T04:36:18;101233.48;;;3.04;94.48
55733;BME280;41637;52.364;9.910;2023-01-31T04:38:44;101241.39;;;3.02;94.46
55733;BME280;41637;52.364;9.910;2023-01-31T04:41:23;101241.16;;;3.02;94.55
55733;BME280;41637;52.364;9.910;2023-01-31T04:43:50;101242.57;;;3.02;94.31
55733;BME280;41637;52.364;9.910;2023-01-31T04:46:24;101242.05;;;3.02;94.04
55733;BME280;41637;52.364;9.910;2023-01-31T04:48:51;101241.57;;;3.01;94.16
55733;BME280;41637;52.364;9.910;2023-01-31T04:51:18;101239.09;;;3.02;94.05
55733;BME280;41637;52.364;9.910;2023-01-31T04:53:45;101248.17;;;3.04;94.24
55733;BME280;41637;52.364;9.910;2023-01-31T04:56:14;101245.73;;;3.07;93.78
55733;BME280;41637;52.364;9.910;2023-01-31T04:58:41;101246.61;;;3.09;93.60
55733;BME280;41637;52.364;9.910;2023-01-31T05:01:09;101249.61;;;3.11;93.47
55733;BME280;41637;52.364;9.910;2023-01-31T05:03:36;101248.20;;;3.16;92.99
55733;BME280;41637;52.364;9.910;2023-01-31T05:06:03;101252.88;;;3.19;92.77
55733;BME280;41637;52.364;9.910;2023-01-31T05:08:30;101250.26;;;3.21;92.60
55733;BME280;41637;52.364;9.910;2023-01-31T05:11:01;101251.57;;;3.25;92.13
55733;BME280;41637;52.364;9.910;2023-01-31T05:13:30;101248.85;;;3.28;91.87
55733;BME280;41637;52.364;9.910;2023-01-31T05:15:58;101246.13;;;3.30;91.79
55733;BME280;41637;52.364;9.910;2023-01-31T05:18:26;101243.09;;;3.31;91.49
55733;BME280;41637;52.364;9.910;2023-01-31T05:20:52;101240.64;;;3.31;91.51
55733;BME280;41637;52.364;9.910;2023-01-31T05:23:21;101246.06;;;3.29;91.23
55733;BME280;41637;52.364;9.910;2023-01-31T05:25:49;101239.99;;;3.30;91.03
55733;BME280;41637;52.364;9.910;2023-01-31T05:28:16;101244.97;;;3.31;90.93
55733;BME280;41637;52.364;9.910;2023-01-31T05:30:44;101245.54;;;3.33;91.10
55733;BME280;41637;52.364;9.910;2023-01-31T05:33:12;101237.19;;;3.35;90.70
55733;BME280;41637;52.364;9.910;2023-01-31T05:35:39;101233.30;;;3.40;90.88
55733;BME280;41637;52.364;9.910;2023-01-31T05:38:08;101231.44;;;3.42;90.34
55733;BME280;41637;52.364;9.910;2023-01-31T05:40:37;101231.56;;;3.42;90.29
55733;BME280;41637;52.364;9.910;2023-01-31T05:43:04;101238.73;;;3.42;90.64
55733;BME280;41637;52.364;9.910;2023-01-31T05:45:32;101236.45;;;3.42;90.38
55733;BME280;41637;52.364;9.910;2023-01-31T05:48:02;101237.29;;;3.45;90.57
55733;BME280;41637;52.364;9.910;2023-01-31T05:50:30;101242.35;;;3.45;90.20
55733;BME280;41637;52.364;9.910;2023-01-31T05:53:00;101242.13;;;3.46;90.52
55733;BME280;41637;52.364;9.910;2023-01-31T05:55:29;101235.56;;;3.47;90.53
55733;BME280;41637;52.364;9.910;2023-01-31T05:57:56;101239.17;;;3.45;90.41
55733;BME280;41637;52.364;9.910;2023-01-31T06:00:31;101236.39;;;3.45;90.50
55733;BME280;41637;52.364;9.910;2023-01-31T06:02:58;101234.98;;;3.43;90.40
55733;BME280;41637;52.364;9.910;2023-01-31T06:05:26;101230.46;;;3.41;90.45
55733;BME280;41637;52.364;9.910;2023-01-31T06:07:53;101230.12;;;3.40;90.60
55733;BME280;41637;52.364;9.910;2023-01-31T06:10:26;101226.51;;;3.40;90.62
55733;BME280;41637;52.364;9.910;2023-01-31T06:12:53;101220.79;;;3.39;90.76
55733;BME280;41637;52.364;9.910;2023-01-31T06:15:23;101222.20;;;3.41;90.71
55733;BME280;41637;52.364;9.910;2023-01-31T06:17:50;101216.73;;;3.42;90.82
55733;BME280;41637;52.364;9.910;2023-01-31T06:20:19;101218.60;;;3.43;90.95
55733;BME280;41637;52.364;9.910;2023-01-31T06:22:59;101220.29;;;3.46;90.76
55733;BME280;41637;52.364;9.910;2023-01-31T06:25:26;101225.30;;;3.46;90.86
55733;BME280;41637;52.364;9.910;2023-01-31T06:28:03;101220.36;;;3.49;90.87
55733;BME280;41637;52.364;9.910;2023-01-31T06:30:31;101211.77;;;3.52;90.71
55733;BME280;41637;52.364;9.910;2023-01-31T06:32:59;101209.72;;;3.54;90.75
55733;BME280;41637;52.364;9.910;2023-01-31T06:35:26;101209.64;;;3.54;90.59
55733;BME280;41637;52.364;9.910;2023-01-31T06:37:56;101210.55;;;3.56;90.38
55733;BME280;41637;52.364;9.910;2023-01-31T06:40:23;101205.52;;;3.60;90.34
55733;BME280;41637;52.364;9.910;2023-01-31T06:42:50;101206.69;;;3.64;90.05
55733;BME280;41637;52.364;9.910;2023-01-31T06:45:20;101207.38;;;3.68;89.93
55733;BME280;41637;52.364;9.910;2023-01-31T06:47:47;101201.30;;;3.70;89.80
55733;BME280;41637;52.364;9.910;2023-01-31T06:50:15;101194.13;;;3.75;89.35
55733;BME280;41637;52.364;9.910;2023-01-31T06:52:42;101190.95;;;3.77;89.04
55733;BME280;41637;52.364;9.910;2023-01-31T06:55:09;101180.15;;;3.81;88.93
55733;BME280;41637;52.364;9.910;2023-01-31T06:57:45;101185.77;;;3.83;88.74
55733;BME280;41637;52.364;9.910;2023-01-31T07:00:12;101182.55;;;3.86;88.55
55733;BME280;41637;52.364;9.910;2023-01-31T07:02:40;101180.39;;;3.89;88.54
55733;BME280;41637;52.364;9.910;2023-01-31T07:05:07;101178.48;;;3.92;88.48
55733;BME280;41637;52.364;9.910;2023-01-31T07:07:34;101175.05;;;3.95;88.56
55733;BME280;41637;52.364;9.910;2023-01-31T07:10:01;101171.33;;;3.96;88.21
55733;BME280;41637;52.364;9.910;2023-01-31T07:12:28;101168.11;;;3.99;88.34
55733;BME280;41637;52.364;9.910;2023-01-31T07:14:56;101162.20;;;3.98;88.26
55733;BME280;41637;52.364;9.910;2023-01-31T07:17:23;101162.34;;;4.01;88.52
55733;BME280;41637;52.364;9.910;2023-01-31T07:20:01;101153.15;;;4.02;88.73
55733;BME280;41637;52.364;9.910;2023-01-31T07:22:28;101139.70;;;4.04;88.75
55733;BME280;41637;52.364;9.910;2023-01-31T07:24:55;101124.72;;;4.10;89.09
55733;BME280;41637;52.364;9.910;2023-01-31T07:27:22;101120.28;;;4.13;88.75
55733;BME280;41637;52.364;9.910;2023-01-31T07:29:58;101115.06;;;4.17;88.78
55733;BME280;41637;52.364;9.910;2023-01-31T07:32:27;101104.52;;;4.19;88.89
55733;BME280;41637;52.364;9.910;2023-01-31T07:35:05;101108.70;;;4.22;88.80
55733;BME280;41637;52.364;9.910;2023-01-31T07:37:33;101103.88;;;4.27;89.06
55733;BME280;41637;52.364;9.910;2023-01-31T07:40:00;101103.13;;;4.28;88.90
55733;BME280;41637;52.364;9.910;2023-01-31T07:42:30;101101.66;;;4.29;89.08
55733;BME280;41637;52.364;9.910;2023-01-31T07:44:57;101098.46;;;4.31;89.07
55733;BME280;41637;52.364;9.910;2023-01-31T07:47:39;101085.34;;;4.36;89.15
55733;BME280;41637;52.364;9.910;2023-01-31T07:50:08;101076.84;;;4.39;89.19
55733;BME280;41637;52.364;9.910;2023-01-31T07:52:36;101084.58;;;4.43;89.14
55733;BME280;41637;52.364;9.910;2023-01-31T07:55:02;101080.55;;;4.49;89.07
55733;BME280;41637;52.364;9.910;2023-01-31T07:57:30;101077.16;;;4.55;89.11
55733;BME280;41637;52.364;9.910;2023-01-31T07:59:57;101075.73;;;4.59;88.87
55733;BME280;41637;52.364;9.910;2023-01-31T08:02:24;101077.85;;;4.65;88.71
55733;BME280;41637;52.364;9.910;2023-01-31T08:05:13;101075.00;;;4.72;88.53
55733;BME280;41637;52.364;9.910;2023-01-31T08:07:41;101076.53;;;4.75;88.27
55733;BME280;41637;52.364;9.910;2023-01-31T08:10:08;101076.87;;;4.79;88.07
55733;BME280;41637;52.364;9.910;2023-01-31T08:12:36;101080.46;;;4.82;87.79
55733;BME280;41637;52.364;9.910;2023-01-31T08:15:03;101070.43;;;4.85;87.23
55733;BME280;41637;52.364;9.910;2023-01-31T08:17:30;101057.11;;;4.91;86.74
55733;BME280;41637;52.364;9.910;2023-01-31T08:19:57;101058.16;;;4.97;86.79
55733;BME280;41637;52.364;9.910;2023-01-31T08:22:24;101061.21;;;5.05;86.27
55733;BME280;41637;52.364;9.910;2023-01-31T08:24:51;101050.81;;;5.10;85.80
55733;BME280;41637;52.364;9.910;2023-01-31T08:27:18;101039.69;;;5.19;85.64
55733;BME280;41637;52.364;9.910;2023-01-31T08:29:46;101039.08;;;5.26;84.99
55733;BME280;41637;52.364;9.910;2023-01-31T08:32:12;101042.56;;;5.30;84.29
55733;BME280;41637;52.364;9.910;2023-01-31T08:34:39;101039.17;;;5.33;84.17
55733;BME280;41637;52.364;9.910;2023-01-31T08:37:06;101045.85;;;5.31;83.98
55733;BME280;41637;52.364;9.910;2023-01-31T08:39:33;101038.87;;;5.30;84.22
55733;BME280;41637;52.364;9.910;2023-01-31T08:41:59;101036.84;;;5.34;84.21
55733;BME280;41637;52.364;9.910;2023-01-31T08:44:26;101036.43;;;5.36;84.19
55733;BME280;41637;52.364;9.910;2023-01-31T08:46:53;101030.90;;;5.40;83.76
55733;BME280;41637;52.364;9.910;2023-01-31T08:49:20;101026.45;;;5.42;83.36
55733;BME280;41637;52.364;9.910;2023-01-31T08:51:46;101015.73;;;5.47;83.44
55733;BME280;41637;52.364;9.910;2023-01-31T08:54:13;101020.95;;;5.51;83.10
55733;BME280;41637;52.364;9.910;2023-01-31T08:56:41;101010.92;;;5.60;82.69
55733;BME280;41637;52.364;9.910;2023-01-31T08:59:09;101014.19;;;5.66;82.56
55733;BME280;41637;52.364;9.910;2023-01-31T09:01:36;101011.91;;;5.70;82.23
55733;BME280;41637;52.364;9.910;2023-01-31T09:04:04;100991.78;;;5.69;81.91
55733;BME280;41637;52.364;9.910;2023-01-31T09:06:31;100985.77;;;5.70;81.65
55733;BME280;41637;52.364;9.910;2023-01-31T09:08:58;100985.02;;;5.70;81.48
55733;BME280;41637;52.364;9.910;2023-01-31T09:11:28;100988.24;;;5.71;81.50
55733;BME280;41637;52.364;9.910;2023-01-31T09:13:56;100987.95;;;5.71;81.26
55733;BME280;41637;52.364;9.910;2023-01-31T09:16:23;100988.73;;;5.74;81.54
55733;BME280;41637;52.364;9.910;2023-01-31T09:18:51;100981.79;;;5.71;81.06
55733;BME280;41637;52.364;9.910;2023-01-31T09:21:20;100980.57;;;5.69;81.27
55733;BME280;41637;52.364;9.910;2023-01-31T09:23:47;100980.20;;;5.65;80.77
55733;BME280;41637;52.364;9.910;2023-01-31T09:26:15;100980.67;;;5.66;81.09
55733;BME280;41637;52.364;9.910;2023-01-31T09:28:42;100987.07;;;5.63;81.63
55733;BME280;41637;52.364;9.910;2023-01-31T09:31:14;100997.34;;;5.60;81.65
55733;BME280;41637;52.364;9.910;2023-01-31T09:33:41;100994.27;;;5.53;82.01
55733;BME280;41637;52.364;9.910;2023-01-31T09:36:14;100997.21;;;5.46;82.14
55733;BME280;41637;52.364;9.910;2023-01-31T09:38:41;100994.23;;;5.40;82.43
55733;BME280;41637;52.364;9.910;2023-01-31T09:41:31;100990.05;;;5.38;83.11
55733;BME280;41637;52.364;9.910;2023-01-31T09:44:02;100989.91;;;5.29;84.75
55733;BME280;41637;52.364;9.910;2023-01-31T09:46:34;100975.95;;;5.20;86.64
55733;BME280;41637;52.364;9.910;2023-01-31T09:49:04;100974.77;;;5.10;88.49
55733;BME280;41637;52.364;9.910;2023-01-31T09:51:33;100975.47;;;4.97;90.22
55733;BME280;41637;52.364;9.910;2023-01-31T09:54:02;100968.36;;;4.84;91.73
55733;BME280;41637;52.364;9.910;2023-01-31T09:56:36;100963.36;;;4.69;93.35
55733;BME280;41637;52.364;9.910;2023-01-31T09:59:32;100950.35;;;4.52;94.85
55733;BME280;41637;52.364;9.910;2023-01-31T10:05:38;100935.23;;;4.36;97.31
55733;BME280;41637;52.364;9.910;2023-01-31T10:08:22;100939.08;;;4.30;97.79
55733;BME280;41637;52.364;9.910;2023-01-31T10:10:56;100942.71;;;4.24;97.47
55733;BME280;41637;52.364;9.910;2023-01-31T10:13:32;100931.97;;;4.25;97.12
55733;BME280;41637;52.364;9.910;2023-01-31T10:16:12;100920.50;;;4.30;97.05
55733;BME280;41637;52.364;9.910;2023-01-31T10:18:44;100921.38;;;4.35;96.86
55733;BME280;41637;52.364;9.910;2023-01-31T10:21:17;100920.02;;;4.36;96.72
55733;BME280;41637;52.364;9.910;2023-01-31T10:23:50;100926.45;;;4.37;96.20
55733;BME280;41637;52.364;9.910;2023-01-31T10:26:33;100918.73;;;4.39;95.82
55733;BME280;41637;52.364;9.910;2023-01-31T10:29:16;100916.48;;;4.41;95.43
55733;BME280;41637;52.364;9.910;2023-01-31T10:34:25;100906.92;;;4.44;95.27
55733;BME280;41637;52.364;9.910;2023-01-31T10:40:02;100898.48;;;4.46;94.48
55733;BME280;41637;52.364;9.910;2023-01-31T10:42:31;100891.21;;;4.50;94.43
55733;BME280;41637;52.364;9.910;2023-01-31T10:47:51;100880.79;;;4.59;94.06
55733;BME280;41637;52.364;9.910;2023-01-31T10:58:17;100846.77;;;4.69;93.92
55733;BME280;41637;52.364;9.910;2023-01-31T11:00:46;100840.36;;;4.73;93.74
55733;BME280;41637;52.364;9.910;2023-01-31T11:03:14;100835.59;;;4.75;93.67
55733;BME280;41637;52.364;9.910;2023-01-31T11:08:24;100836.38;;;4.78;93.23
55733;BME280;41637;52.364;9.910;2023-01-31T11:10:53;100824.29;;;4.82;93.22
55733;BME280;41637;52.364;9.910;2023-01-31T11:13:21;100821.33;;;4.86;93.07
55733;BME280;41637;52.364;9.910;2023-01-31T11:15:51;100813.52;;;4.91;92.81
55733;BME280;41637;52.364;9.910;2023-01-31T11:18:26;100818.34;;;4.98;92.47
55733;BME280;41637;52.364;9.910;2023-01-31T11:20:54;100810.42;;;5.04;92.28
55733;BME280;41637;52.364;9.910;2023-01-31T11:23:23;100804.72;;;5.07;91.99
55733;BME280;41637;52.364;9.910;2023-01-31T11:25:51;100808.77;;;5.13;92.09
55733;BME280;41637;52.364;9.910;2023-01-31T11:31:00;100805.61;;;5.19;91.57
55733;BME280;41637;52.364;9.910;2023-01-31T11:33:39;100799.94;;;5.18;91.71
55733;BME280;41637;52.364;9.910;2023-01-31T11:36:09;100800.80;;;5.20;91.49
55733;BME280;41637;52.364;9.910;2023-01-31T11:38:36;100786.38;;;5.22;91.59
55733;BME280;41637;52.364;9.910;2023-01-31T11:41:56;100789.80;;;5.23;91.46
55733;BME280;41637;52.364;9.910;2023-01-31T11:44:17;100781.89;;;5.27;91.32
55733;BME280;41637;52.364;9.910;2023-01-31T11:46:51;100777.77;;;5.30;91.21
55733;BME280;41637;52.364;9.910;2023-01-31T11:49:40;100779.84;;;5.31;91.21
55733;BME280;41637;52.364;9.910;2023-01-31T11:52:20;100772.85;;;5.33;91.12
55733;BME280;41637;52.364;9.910;2023-01-31T11:54:55;100769.16;;;5.33;91.00
55733;BME280;41637;52.364;9.910;2023-01-31T11:57:27;100755.15;;;5.32;91.12
55733;BME280;41637;52.364;9.910;2023-01-31T11:59:57;100757.42;;;5.33;91.18
55733;BME280;41637;52.364;9.910;2023-01-31T12:02:39;100759.30;;;5.31;91.17
55733;BME280;41637;52.364;9.910;2023-01-31T12:05:12;100757.33;;;5.27;91.38
55733;BME280;41637;52.364;9.910;2023-01-31T12:07:45;100749.86;;;5.28;91.60
55733;BME280;41637;52.364;9.910;2023-01-31T12:10:33;100745.02;;;5.28;91.56
55733;BME280;41637;52.364;9.910;2023-01-31T12:13:12;100734.86;;;5.26;91.55
55733;BME280;41637;52.364;9.910;2023-01-31T12:22:04;100723.73;;;5.30;91.66
55733;BME280;41637;52.364;9.910;2023-01-31T12:33:08;100716.58;;;5.35;91.20
55733;BME280;41637;52.364;9.910;2023-01-31T12:54:59;100731.52;;;5.16;93.17
55733;BME280;41637;52.364;9.910;2023-01-31T13:00:34;100728.98;;;5.17;93.95
55733;BME280;41637;52.364;9.910;2023-01-31T13:05:54;100728.63;;;5.07;96.30
55733;BME280;41637;52.364;9.910;2023-01-31T13:08:24;100737.67;;;4.95;97.98
55733;BME280;41637;52.364;9.910;2023-01-31T13:11:05;100736.36;;;4.83;99.60
55733;BME280;41637;52.364;9.910;2023-01-31T13:13:51;100727.64;;;4.74;100.00
55733;BME280;41637;52.364;9.910;2023-01-31T13:16:37;100727.48;;;4.71;100.00
55733;BME280;41637;52.364;9.910;2023-01-31T13:19:12;100728.70;;;4.65;100.00
55733;BME280;41637;52.364;9.910;2023-01-31T13:21:45;100730.96;;;4.63;100.00
55733;BME280;41637;52.364;9.910;2023-01-31T13:24:17;100725.86;;;4.62;100.00
55733;BME280;41637;52.364;9.910;2023-01-31T13:26:53;100719.88;;;4.62;100.00
55733;BME280;41637;52.364;9.910;2023-01-31T13:29:32;100715.62;;;4.61;100.00
55733;BME280;41637;52.364;9.910;2023-01-31T13:32:10;100715.92;;;4.61;100.00
55733;BME280;41637;52.364;9.910;2023-01-31T13:34:53;100711.48;;;4.62;100.00
55733;BME280;41637;52.364;9.910;2023-01-31T13:37:22;100716.19;;;4.62;100.00
55733;BME280;41637;52.364;9.910;2023-01-31T13:42:25;100717.02;;;4.63;100.00
55733;BME280;41637;52.364;9.910;2023-01-31T13:44:53;100702.39;;;4.62;100.00
55733;BME280;41637;52.364;9.910;2023-01-31T13:47:28;100717.45;;;4.62;100.00
55733;BME280;41637;52.364;9.910;2023-01-31T13:50:03;100713.58;;;4.64;100.00
55733;BME280;41637;52.364;9.910;2023-01-31T13:52:44;100699.80;;;4.65;100.00
55733;BME280;41637;52.364;9.910;2023-01-31T13:55:30;100696.78;;;4.70;100.00
55733;BME280;41637;52.364;9.910;2023-01-31T13:58:04;100695.77;;;4.75;100.00
55733;BME280;41637;52.364;9.910;2023-01-31T14:00:39;100690.14;;;4.79;100.00
55733;BME280;41637;52.364;9.910;2023-01-31T14:16:41;100685.63;;;5.00;100.00
55733;BME280;41637;52.364;9.910;2023-01-31T14:22:11;100686.43;;;5.05;100.00
55733;BME280;41637;52.364;9.910;2023-01-31T14:30:06;100669.72;;;5.13;100.00
55733;BME280;41637;52.364;9.910;2023-01-31T14:38:04;100663.02;;;5.25;100.00
55733;BME280;41637;52.364;9.910;2023-01-31T14:40:53;100664.20;;;5.30;100.00
55733;BME280;41637;52.364;9.910;2023-01-31T14:46:24;100665.38;;;5.40;99.90
55733;BME280;41637;52.364;9.910;2023-01-31T14:49:00;100660.65;;;5.44;99.50
55733;BME280;41637;52.364;9.910;2023-01-31T14:54:14;100648.95;;;5.50;99.49
55733;BME280;41637;52.364;9.910;2023-01-31T14:59:35;100665.28;;;5.52;99.35
55733;BME280;41637;52.364;9.910;2023-01-31T15:04:55;100665.98;;;5.62;99.23
55733;BME280;41637;52.364;9.910;2023-01-31T15:07:23;100663.61;;;5.68;98.76
55733;BME280;41637;52.364;9.910;2023-01-31T15:09:50;100675.55;;;5.74;98.67
55733;BME280;41637;52.364;9.910;2023-01-31T15:12:53;100660.98;;;5.78;98.60
55733;BME280;41637;52.364;9.910;2023-01-31T15:15:30;100665.61;;;5.84;98.15
55733;BME280;41637;52.364;9.910;2023-01-31T15:18:01;100657.40;;;5.88;98.11
55733;BME280;41637;52.364;9.910;2023-01-31T15:20:37;100656.77;;;5.91;98.14
55733;BME280;41637;52.364;9.910;2023-01-31T15:23:14;100678.84;;;5.93;98.22
55733;BME280;41637;52.364;9.910;2023-01-31T15:25:44;100670.67;;;5.96;98.13
55733;BME280;41637;52.364;9.910;2023-01-31T15:28:17;100664.48;;;5.98;98.18
55733;BME280;41637;52.364;9.910;2023-01-31T15:30:46;100652.63;;;6.01;98.03
55733;BME280;41637;52.364;9.910;2023-01-31T15:33:24;100688.26;;;6.00;97.93
55733;BME280;41637;52.364;9.910;2023-01-31T15:36:00;100659.66;;;6.03;97.90